Terminal Aerodrome Forecast
Issued by NWS

Home | Current Version | Previous Version | Text Only | Print | Product List | Glossary On
Versions: 1 2 3 4 5 6 7 8 9 10 11 12 13 14 15 16 17 18 19 20 21 22 23 24 25 26 27 28 29 30 31 32 33 34 35 36
000
FTUS45 KBOU 020520
TAFBJC
TAF
KBJC 020520Z 0206/0306 32004KT P6SM SCT120 BKN200
     FM021300 VRB05KT P6SM FEW150 SCT220
     FM021800 08006KT P6SM FEW090 SCT220
     FM022100 08007KT P6SM VCTS SCT080CB BKN120
     FM030200 16012KT P6SM SCT080 BKN120
     FM030500 23008KT P6SM FEW090 SCT140=

USA.gov is the U.S. government's official web portal to all federal, state and local government web resources and services.